Tamaha, Oklahoma
Current Conditions -  °F | °C
As of 3:15 PM on Thursday 18 Dec 2014 (Local Time) from KGZL Reporting Station
Haze Haze  
Wind Chill: 37°   Ceiling: 600
Heat Index: 41°   Visibility: 5mi
Dew Point: 37°   Wind: 6mph
Humidity: 87%   Direction: 60°ENE
Pressure: 30.16"   Gusts: NA
Location:  35.2928°N, 95.0844°W
Report Text: KGZL 182115Z AUTO 06005KT 5SM BR OVC006 05/03 A3016 RMK AO2
Loading
Personal Weather Stations






























Interactive Weather Map New forecast layout! Learn more

10-Day Weather Forecast

Advertisements
Track Severe Weather on mobile